KCUB/CUB METAR and TAF weather

Enter ICAO airport designator
Station Type Date Time Source
KCUB METAR 2020/07/07 09:53 UTC NOAA

KCUB 070953Z AUTO 00000KT 2 1/2SM +RA BR FEW018 BKN050 OVC070 23/23 A3002 RMK AO2 SLP162 P0015 T02330228


Station Type Date Time Source
KCUB Decoded METAR 2020/07/07 09:53 UTC NOAA

OWENS DOWNTOWN AIRPORT, SC, United States (KCUB) 33-58N 081-00W 56M
Jul 07, 2020 - 05:53 AM EDT / 2020.07.07 0953 UTC
Wind: Calm:0
Visibility: 2 1/2 mile(s):0
Sky conditions: overcast
Weather: heavy rain; mist
Precipitation last hour: 0.15 inches
Temperature: 73.9 F (23.3 C)
Dew Point: 73.0 F (22.8 C)
Relative Humidity: 97%
Pressure (altimeter): 30.02 in. Hg (1016 hPa)
ob: KCUB 070953Z AUTO 00000KT 2 1/2SM +RA BR FEW018 BKN050 OVC070 23/23 A3002 RMK AO2 SLP162 P0015 T02330228
cycle: 10

Station Type Date Time Source
KCUB TAF 2020/07/07 08:24 UTC NOAA

TAF
AMD KCUB 070822Z 0708/0806 VRB03KT 6SM RA BR OVC100
FM071000 VRB02KT 4SM -RA BR OVC007
FM071900 13006KT 5SM -TSRA BR SCT015 OVC025CB
FM080000 11008KT 6SM -RA OVC015

Example: see airport list